Time;durP1;ratioP1;P1;durP2;ratioP2;P2;SDS_P1;SDS_P2;PMS_P1;PMS_P2;Temp;Humidity;BMP_temperature;BMP_pressure;BME280_temperature;BME280_humidity;BME280_pressure;Samples;Min_cycle;Max_cycle;Signal;HPM_P1;HPM_P2
2023/02/22 00:02:31;;;;;;;5.80;3.70;;;9.10;97.70;;;;;;10445709;28;20692;-82
2023/02/22 00:07:34;;;;;;;5.10;4.70;;;9.00;98.10;;;;;;10459436;28;20206;-86
2023/02/22 00:12:36;;;;;;;7.20;6.50;;;9.00;98.00;;;;;;10441468;28;20268;-82
2023/02/22 00:17:40;;;;;;;4.67;4.27;;;9.00;98.20;;;;;;10458920;28;20242;-82
2023/02/22 00:22:45;;;;;;;3.97;3.67;;;9.00;98.20;;;;;;10492204;28;20222;-83
2023/02/22 00:27:48;;;;;;;5.10;4.70;;;9.00;98.00;;;;;;10463535;28;20232;-82
2023/02/22 00:32:51;;;;;;;6.10;5.60;;;8.90;98.30;;;;;;10493822;28;20654;-84
2023/02/22 00:37:55;;;;;;;9.90;5.60;;;8.90;98.40;;;;;;10483715;28;20190;-82
2023/02/22 00:42:58;;;;;;;5.33;4.87;;;8.90;98.40;;;;;;10467836;28;20211;-83
2023/02/22 00:48:02;;;;;;;5.70;5.10;;;8.90;97.90;;;;;;10449199;28;20673;-81
2023/02/22 00:53:06;;;;;;;6.70;6.10;;;8.90;98.00;;;;;;10459517;28;20217;-83
2023/02/22 00:58:08;;;;;;;7.07;6.10;;;8.80;98.10;;;;;;10494922;28;20497;-82
2023/02/22 01:03:14;;;;;;;6.13;5.50;;;8.70;98.50;;;;;;10484649;28;20214;-87
2023/02/22 01:08:17;;;;;;;8.43;6.40;;;8.70;98.30;;;;;;10467779;28;20683;-82
2023/02/22 01:13:19;;;;;;;8.07;7.37;;;8.60;98.30;;;;;;10446479;28;20244;-82
2023/02/22 01:18:24;;;;;;;8.07;7.23;;;8.60;98.70;;;;;;10462396;28;20573;-81
2023/02/22 01:23:26;;;;;;;7.20;6.47;;;8.70;98.60;;;;;;10474428;28;20218;-82
2023/02/22 01:28:29;;;;;;;14.53;12.00;;;8.70;98.20;;;;;;10463803;28;20444;-82
2023/02/22 01:33:32;;;;;;;12.80;11.50;;;8.60;98.60;;;;;;10455270;28;20640;-82
2023/02/22 01:38:35;;;;;;;9.40;7.30;;;8.50;98.60;;;;;;10439813;28;20574;-81
2023/02/22 01:43:37;;;;;;;7.93;7.00;;;8.50;98.10;;;;;;10457190;28;20297;-83
2023/02/22 01:48:44;;;;;;;28.03;19.17;;;8.40;98.50;;;;;;10440460;28;20206;-82
2023/02/22 01:53:51;;;;;;;9.53;8.67;;;8.40;98.70;;;;;;10457960;28;20212;-82
2023/02/22 01:58:57;;;;;;;8.70;8.00;;;8.40;98.60;;;;;;10440711;28;20458;-82
2023/02/22 02:04:05;;;;;;;9.33;7.93;;;8.40;98.40;;;;;;10482581;28;20223;-81
2023/02/22 02:09:14;;;;;;;8.60;7.80;;;8.30;98.70;;;;;;10472843;28;20249;-81
2023/02/22 02:14:17;;;;;;;9.30;8.40;;;8.20;98.90;;;;;;10456093;28;20695;-86
2023/02/22 02:19:30;;;;;;;9.37;7.63;;;8.30;99.00;;;;;;10455458;28;20186;-82
2023/02/22 02:24:56;;;;;;;7.87;7.17;;;8.30;98.80;;;;;;10483685;22;20293;-80
2023/02/22 02:30:25;;;;;;;9.90;8.40;;;8.30;98.50;;;;;;10451363;28;20232;-81
2023/02/22 02:35:45;;;;;;;9.63;8.00;;;8.20;98.80;;;;;;10433486;28;20217;-79
2023/02/22 02:40:55;;;;;;;8.40;7.60;;;8.20;99.00;;;;;;10370549;28;20195;-81
2023/02/22 02:46:03;;;;;;;8.70;7.80;;;8.20;98.60;;;;;;10451154;28;20239;-80
2023/02/22 02:51:13;;;;;;;8.80;8.00;;;8.20;99.00;;;;;;10417322;28;20215;-78
2023/02/22 02:56:24;;;;;;;9.10;8.17;;;8.20;99.10;;;;;;10398647;28;20245;-76
2023/02/22 03:01:49;;;;;;;9.10;8.30;;;8.20;99.00;;;;;;10455468;28;20188;-77
2023/02/22 03:07:07;;;;;;;21.30;11.33;;;8.20;98.70;;;;;;10433820;28;20216;-78
2023/02/22 03:12:23;;;;;;;10.77;7.97;;;8.20;99.00;;;;;;10401762;28;20265;-78
2023/02/22 03:17:35;;;;;;;9.63;8.20;;;8.20;98.60;;;;;;10427181;28;20328;-77
2023/02/22 03:22:46;;;;;;;15.43;9.10;;;8.10;98.90;;;;;;10428399;28;20264;-78
2023/02/22 03:27:52;;;;;;;10.80;8.63;;;8.10;98.70;;;;;;10449826;28;20208;-78
2023/02/22 03:33:00;;;;;;;9.60;8.17;;;8.00;98.60;;;;;;10504128;28;20633;-78
2023/02/22 03:38:08;;;;;;;19.67;12.20;;;8.00;98.60;;;;;;10465423;28;20196;-77
2023/02/22 03:43:15;;;;;;;25.97;14.70;;;7.90;98.80;;;;;;10486227;28;20312;-79
2023/02/22 03:48:26;;;;;;;10.63;8.60;;;7.90;98.80;;;;;;10456798;28;20193;-79
2023/02/22 03:53:32;;;;;;;16.40;10.20;;;7.90;98.50;;;;;;10446194;28;20214;-77
2023/02/22 03:58:39;;;;;;;19.40;14.20;;;7.80;98.70;;;;;;10479395;28;20190;-78
2023/02/22 04:03:43;;;;;;;10.37;8.90;;;7.70;98.80;;;;;;10468628;28;20225;-77
2023/02/22 04:08:47;;;;;;;10.43;9.33;;;7.70;98.90;;;;;;10475428;28;20212;-78
2023/02/22 04:13:50;;;;;;;9.80;8.90;;;7.70;98.80;;;;;;10461499;28;20212;-78
2023/02/22 04:18:53;;;;;;;10.30;9.20;;;7.70;98.50;;;;;;10476955;28;20194;-81
2023/02/22 04:23:58;;;;;;;10.20;9.17;;;7.70;98.70;;;;;;10448498;28;20231;-79
2023/02/22 04:29:00;;;;;;;11.23;9.20;;;7.60;98.70;;;;;;10471949;28;20224;-77
2023/02/22 04:34:09;;;;;;;10.70;8.93;;;7.60;98.60;;;;;;10498376;28;20588;-75
2023/02/22 04:39:16;;;;;;;10.70;9.60;;;7.60;98.80;;;;;;10460479;28;20234;-78
2023/02/22 04:44:19;;;;;;;10.00;8.90;;;7.60;98.50;;;;;;10479958;28;20253;-77
2023/02/22 04:49:22;;;;;;;12.00;9.90;;;7.50;98.50;;;;;;10462954;28;20220;-78
2023/02/22 04:54:27;;;;;;;11.57;10.20;;;7.40;98.70;;;;;;10461477;28;20244;-79
2023/02/22 04:59:29;;;;;;;12.00;9.60;;;7.40;98.70;;;;;;10459144;28;20255;-77
2023/02/22 05:04:38;;;;;;;10.93;9.80;;;7.40;98.60;;;;;;10477520;28;20224;-77
2023/02/22 05:09:50;;;;;;;10.83;9.93;;;7.40;98.70;;;;;;10463652;28;20200;-77
2023/02/22 05:14:54;;;;;;;9.37;8.47;;;7.30;99.10;;;;;;10469762;28;20212;-79
2023/02/22 05:20:01;;;;;;;10.20;9.30;;;7.30;98.60;;;;;;10431150;28;20197;-79
2023/02/22 05:25:06;;;;;;;10.00;9.00;;;7.30;98.50;;;;;;10458335;28;20218;-76
2023/02/22 05:30:10;;;;;;;10.07;9.20;;;7.20;98.80;;;;;;10466510;28;20244;-76
2023/02/22 05:35:13;;;;;;;11.33;10.13;;;7.20;98.80;;;;;;10470287;28;20224;-75
2023/02/22 05:40:19;;;;;;;12.37;11.17;;;7.10;99.00;;;;;;10463741;28;20286;-75
2023/02/22 05:45:23;;;;;;;11.13;9.90;;;7.20;98.90;;;;;;10449355;28;20222;-78
2023/02/22 05:50:27;;;;;;;12.50;10.83;;;7.20;99.30;;;;;;10477280;28;20250;-77
2023/02/22 05:55:33;;;;;;;10.70;9.60;;;7.20;99.20;;;;;;10483178;28;20207;-78
2023/02/22 06:00:35;;;;;;;10.70;9.60;;;7.20;99.60;;;;;;10460096;28;20205;-77
2023/02/22 06:05:37;;;;;;;14.87;12.40;;;7.30;99.10;;;;;;10465555;28;20213;-76
2023/02/22 06:10:41;;;;;;;11.50;10.37;;;7.30;98.60;;;;;;10446313;28;20566;-77
2023/02/22 06:15:43;;;;;;;12.67;11.43;;;7.20;98.90;;;;;;10463927;28;20222;-78
2023/02/22 06:20:45;;;;;;;14.73;12.80;;;7.20;99.40;;;;;;10450816;28;20197;-79
2023/02/22 06:25:49;;;;;;;14.00;12.50;;;7.20;99.10;;;;;;10450720;28;20301;-77
2023/02/22 06:30:51;;;;;;;12.53;11.00;;;7.20;99.10;;;;;;10434214;28;20441;-81
2023/02/22 06:35:53;;;;;;;11.70;10.70;;;7.20;99.10;;;;;;10443159;28;20203;-81
2023/02/22 06:40:56;;;;;;;12.60;11.40;;;7.20;99.10;;;;;;10482709;28;20186;-81
2023/02/22 06:45:58;;;;;;;11.37;10.30;;;7.30;99.10;;;;;;10472718;28;20235;-78
2023/02/22 06:51:00;;;;;;;11.63;10.43;;;7.30;99.00;;;;;;10452177;28;20194;-76
2023/02/22 06:56:04;;;;;;;10.57;9.57;;;7.30;99.00;;;;;;10490924;28;20266;-77
2023/02/22 07:01:07;;;;;;;11.80;10.47;;;7.30;99.60;;;;;;10458327;28;20204;-76
2023/02/22 07:06:10;;;;;;;11.93;10.73;;;7.40;99.10;;;;;;10489000;28;20222;-78
2023/02/22 07:11:13;;;;;;;11.80;10.63;;;7.40;99.40;;;;;;10447645;28;20253;-78
2023/02/22 07:16:15;;;;;;;12.90;10.90;;;7.40;99.60;;;;;;10473894;28;20630;-76
2023/02/22 07:21:18;;;;;;;8.37;7.57;;;7.60;99.60;;;;;;10467211;28;20225;-77
2023/02/22 07:26:22;;;;;;;11.00;9.90;;;7.70;99.30;;;;;;10473511;28;20209;-77
2023/02/22 07:31:24;;;;;;;11.07;10.07;;;7.80;99.30;;;;;;10429066;28;20242;-77
2023/02/22 07:36:26;;;;;;;10.67;9.60;;;7.90;99.30;;;;;;10440223;28;20204;-77
2023/02/22 07:41:30;;;;;;;10.67;9.77;;;7.90;99.50;;;;;;10465291;28;20191;-78
2023/02/22 07:46:32;;;;;;;11.43;10.07;;;8.00;99.40;;;;;;10492138;28;20258;-77
2023/02/22 07:51:34;;;;;;;13.63;12.20;;;8.10;99.90;;;;;;10446067;28;20197;-77
2023/02/22 07:56:43;;;;;;;12.57;11.20;;;8.20;99.30;;;;;;10474752;28;20513;-76
2023/02/22 08:01:48;;;;;;;18.63;11.40;;;8.40;99.10;;;;;;10459938;28;20208;-78
2023/02/22 08:06:50;;;;;;;15.33;10.70;;;8.50;99.10;;;;;;10491650;28;20322;-77
2023/02/22 08:11:54;;;;;;;17.07;11.40;;;8.70;99.10;;;;;;10444730;28;20576;-78
2023/02/22 08:16:56;;;;;;;13.07;11.73;;;8.90;98.70;;;;;;10491637;28;20251;-77
2023/02/22 08:21:58;;;;;;;11.43;10.43;;;9.00;98.30;;;;;;10461108;28;20217;-77
2023/02/22 08:27:01;;;;;;;13.40;11.50;;;9.10;98.50;;;;;;10498658;28;20223;-78
2023/02/22 08:32:06;;;;;;;15.90;12.10;;;9.30;98.60;;;;;;10466716;28;20553;-78
2023/02/22 08:37:08;;;;;;;18.43;12.70;;;9.40;98.60;;;;;;10457074;28;20239;-78
2023/02/22 08:42:12;;;;;;;13.50;12.10;;;9.50;98.60;;;;;;10498197;28;20255;-78
2023/02/22 08:47:14;;;;;;;15.67;13.23;;;9.60;98.60;;;;;;10449294;28;20220;-78
2023/02/22 08:52:16;;;;;;;14.37;11.93;;;9.70;98.70;;;;;;10500558;28;20193;-79
2023/02/22 08:57:19;;;;;;;14.03;11.60;;;9.80;98.40;;;;;;10431107;28;20208;-78
2023/02/22 09:02:24;;;;;;;12.90;11.33;;;9.80;98.20;;;;;;10459635;28;20189;-78
2023/02/22 09:07:26;;;;;;;13.07;11.73;;;9.90;98.70;;;;;;10471976;28;20259;-78
2023/02/22 09:12:30;;;;;;;18.97;12.83;;;10.00;98.10;;;;;;10505571;28;20189;-78
2023/02/22 09:17:36;;;;;;;22.73;14.20;;;10.10;98.00;;;;;;10466958;28;20193;-78
2023/02/22 09:22:38;;;;;;;15.73;12.77;;;10.20;98.20;;;;;;10478048;28;20232;-79
2023/02/22 09:27:47;;;;;;;14.27;12.87;;;10.40;98.20;;;;;;10442373;28;20227;-77
2023/02/22 09:32:53;;;;;;;14.33;11.30;;;10.50;98.00;;;;;;10476719;28;20213;-78
2023/02/22 09:37:55;;;;;;;14.60;12.00;;;10.60;98.00;;;;;;10496533;28;21380;-78
2023/02/22 09:43:15;;;;;;;13.10;11.80;;;10.80;97.40;;;;;;10459318;28;20213;-78
2023/02/22 09:48:18;;;;;;;14.07;11.57;;;10.90;97.40;;;;;;10493410;28;20208;-78
2023/02/22 09:53:28;;;;;;;12.93;11.43;;;11.00;97.50;;;;;;10460540;28;20252;-78
2023/02/22 09:58:36;;;;;;;15.10;10.30;;;11.10;97.00;;;;;;10494767;28;20311;-78
2023/02/22 10:03:49;;;;;;;10.80;9.90;;;11.30;97.30;;;;;;10449298;28;20233;-78
2023/02/22 10:08:55;;;;;;;10.60;9.63;;;11.40;96.30;;;;;;10493693;28;20232;-78
2023/02/22 10:14:10;;;;;;;10.43;9.27;;;11.50;96.80;;;;;;10462965;28;20557;-78
2023/02/22 10:19:24;;;;;;;13.47;10.00;;;11.60;96.70;;;;;;10455425;28;20201;-78
2023/02/22 10:24:38;;;;;;;14.30;9.63;;;11.60;96.80;;;;;;10464192;28;20225;-78
2023/02/22 10:29:43;;;;;;;11.93;10.30;;;11.80;96.90;;;;;;10488586;28;20248;-78
2023/02/22 10:34:50;;;;;;;14.17;10.87;;;12.00;96.10;;;;;;10448896;28;20263;-78
2023/02/22 10:39:58;;;;;;;10.90;9.90;;;12.20;95.60;;;;;;10492166;28;20193;-78
2023/02/22 10:45:02;;;;;;;14.17;9.83;;;12.40;96.10;;;;;;10488279;28;20320;-78
2023/02/22 10:50:04;;;;;;;15.43;9.70;;;12.70;95.80;;;;;;10452408;28;20209;-78
2023/02/22 10:55:12;;;;;;;11.03;9.93;;;12.80;94.80;;;;;;10489318;28;20243;-78
2023/02/22 11:00:25;;;;;;;11.50;10.03;;;12.90;95.00;;;;;;10450996;28;20685;-78
2023/02/22 11:05:30;;;;;;;10.53;9.57;;;12.90;95.10;;;;;;10479093;28;20213;-78
2023/02/22 11:10:37;;;;;;;13.27;10.77;;;12.90;95.20;;;;;;10478151;28;20196;-78
2023/02/22 11:15:40;;;;;;;13.07;11.67;;;12.90;95.50;;;;;;10477768;28;20209;-78
2023/02/22 11:20:42;;;;;;;11.33;10.23;;;12.90;94.30;;;;;;10465767;28;20201;-78
2023/02/22 11:25:44;;;;;;;12.43;9.60;;;12.90;94.10;;;;;;10478473;28;20302;-78
2023/02/22 11:30:51;;;;;;;11.47;10.37;;;13.00;93.80;;;;;;10461295;28;20253;-79
2023/02/22 11:35:55;;;;;;;12.87;11.07;;;13.10;94.60;;;;;;10503760;28;20704;-79
2023/02/22 11:41:15;;;;;;;17.83;11.23;;;13.20;95.00;;;;;;10480444;28;20264;-79
2023/02/22 11:46:21;;;;;;;15.93;12.37;;;13.20;95.30;;;;;;10481437;28;20688;-78
2023/02/22 11:51:37;;;;;;;13.50;12.00;;;13.20;94.00;;;;;;10473425;28;20202;-79
2023/02/22 11:56:42;;;;;;;12.40;11.17;;;13.20;94.90;;;;;;10459583;28;20213;-78
2023/02/22 12:01:51;;;;;;;15.93;14.30;;;13.20;95.60;;;;;;10477139;28;20197;-79
2023/02/22 12:07:14;;;;;;;15.23;13.20;;;13.40;95.00;;;;;;10470341;28;20625;-78
2023/02/22 12:12:25;;;;;;;12.80;11.60;;;13.50;95.20;;;;;;10484094;28;20194;-78
2023/02/22 12:17:43;;;;;;;13.47;12.07;;;13.50;94.80;;;;;;10479498;28;20252;-78
2023/02/22 12:22:57;;;;;;;16.00;12.43;;;13.60;95.00;;;;;;10463528;28;20202;-79
2023/02/22 12:28:16;;;;;;;13.00;11.70;;;13.60;95.20;;;;;;10480382;28;20237;-78
2023/02/22 12:33:24;;;;;;;15.40;13.53;;;13.50;95.20;;;;;;10442316;28;20213;-78
2023/02/22 12:38:32;;;;;;;14.60;13.20;;;13.50;94.90;;;;;;10465008;28;20200;-78
2023/02/22 12:43:40;;;;;;;15.50;12.63;;;13.50;95.00;;;;;;10477261;28;20301;-78
2023/02/22 12:48:50;;;;;;;14.93;13.57;;;13.70;94.80;;;;;;10474054;28;20267;-78
2023/02/22 12:54:01;;;;;;;13.57;12.27;;;13.80;95.00;;;;;;10451219;28;20270;-79
2023/02/22 12:59:09;;;;;;;13.83;12.30;;;13.90;94.70;;;;;;10498820;28;20220;-78
2023/02/22 13:04:13;;;;;;;12.60;11.30;;;14.00;94.10;;;;;;10480432;28;20304;-79
2023/02/22 13:09:37;;;;;;;16.87;11.50;;;14.10;94.90;;;;;;10438980;28;20214;-78
2023/02/22 13:14:51;;;;;;;12.17;10.97;;;14.20;95.00;;;;;;10466068;28;20248;-78
2023/02/22 13:20:01;;;;;;;12.47;11.17;;;14.10;94.50;;;;;;10470760;28;20284;-78
2023/02/22 13:25:10;;;;;;;11.30;10.20;;;14.10;94.00;;;;;;10451035;28;20371;-78
2023/02/22 13:30:21;;;;;;;13.40;10.33;;;14.10;94.50;;;;;;10481807;28;20254;-79
2023/02/22 13:35:42;;;;;;;13.87;12.43;;;14.10;93.10;;;;;;10449879;28;20214;-78
2023/02/22 13:41:05;;;;;;;12.87;11.53;;;14.10;92.60;;;;;;10441939;28;20225;-78
2023/02/22 13:46:39;;;;;;;12.43;11.23;;;14.10;93.40;;;;;;10461264;28;20248;-78
2023/02/22 13:51:50;;;;;;;15.13;10.90;;;14.00;93.60;;;;;;10453688;28;20216;-78
2023/02/22 13:56:55;;;;;;;13.73;12.33;;;13.90;93.40;;;;;;10457734;28;20280;-78
2023/02/22 14:01:58;;;;;;;14.17;12.07;;;13.80;93.90;;;;;;10495036;28;20717;-78
2023/02/22 14:07:03;;;;;;;13.00;11.80;;;13.60;94.70;;;;;;10488506;28;20217;-78
2023/02/22 14:12:06;;;;;;;15.17;13.20;;;13.50;94.90;;;;;;10411433;28;20240;-78
2023/02/22 14:17:22;;;;;;;12.80;11.50;;;13.50;94.90;;;;;;10460675;28;20214;-79
2023/02/22 14:22:28;;;;;;;13.57;12.17;;;13.50;95.00;;;;;;10477153;28;20203;-78
2023/02/22 14:27:40;;;;;;;14.40;12.90;;;13.40;95.30;;;;;;10480410;22;20226;-83
2023/02/22 14:32:42;;;;;;;13.70;12.30;;;13.50;95.30;;;;;;10443396;28;20197;-83
2023/02/22 14:37:53;;;;;;;15.23;12.23;;;13.50;95.70;;;;;;10443341;28;20233;-83
2023/02/22 14:43:01;;;;;;;14.40;12.90;;;13.60;95.00;;;;;;10450901;28;20226;-82
2023/02/22 14:48:13;;;;;;;17.50;13.10;;;13.60;95.70;;;;;;10452680;28;20221;-82
2023/02/22 14:53:24;;;;;;;13.93;12.60;;;13.60;95.20;;;;;;10468777;28;20206;-83
2023/02/22 14:58:33;;;;;;;14.93;13.53;;;13.50;95.80;;;;;;10453129;28;20186;-82
2023/02/22 15:03:37;;;;;;;14.50;11.90;;;13.50;96.30;;;;;;10469273;28;20759;-81
2023/02/22 15:08:41;;;;;;;13.23;12.03;;;13.40;96.20;;;;;;10455722;28;20285;-82
2023/02/22 15:13:50;;;;;;;15.07;13.57;;;13.40;96.60;;;;;;10480386;28;20227;-82
2023/02/22 15:18:54;;;;;;;17.17;13.70;;;13.40;96.40;;;;;;10470062;28;20205;-81
2023/02/22 15:24:00;;;;;;;14.87;13.30;;;13.40;96.50;;;;;;10471964;28;20793;-81
2023/02/22 15:29:09;;;;;;;15.20;13.30;;;13.40;96.60;;;;;;10470739;28;20214;-82
2023/02/22 15:34:23;;;;;;;15.83;14.33;;;13.50;96.30;;;;;;10439681;28;20213;-82
2023/02/22 15:39:31;;;;;;;15.60;13.47;;;13.50;96.10;;;;;;10462181;28;20213;-80
2023/02/22 15:44:39;;;;;;;14.87;13.30;;;13.50;96.50;;;;;;10449329;28;20206;-79
2023/02/22 15:49:41;;;;;;;14.83;13.43;;;13.40;96.60;;;;;;10483143;28;20268;-81
2023/02/22 15:54:49;;;;;;;15.13;13.73;;;13.40;96.90;;;;;;10458445;28;20252;-83
2023/02/22 15:59:53;;;;;;;18.27;16.43;;;13.40;96.40;;;;;;10483646;28;20189;-84
2023/02/22 16:04:59;;;;;;;16.30;14.60;;;13.40;96.30;;;;;;10468789;28;20226;-81
2023/02/22 16:10:07;;;;;;;17.57;15.77;;;13.40;96.90;;;;;;10458026;28;20222;-81
2023/02/22 16:15:17;;;;;;;16.43;14.80;;;13.30;96.70;;;;;;10477558;28;20209;-81
2023/02/22 16:20:33;;;;;;;24.13;21.60;;;13.30;97.40;;;;;;10489926;28;20194;-81
2023/02/22 16:25:38;;;;;;;18.80;16.90;;;13.30;97.40;;;;;;10479463;28;20279;-80
2023/02/22 16:30:40;;;;;;;18.37;16.50;;;13.20;97.40;;;;;;10453375;28;20203;-82
2023/02/22 16:35:50;;;;;;;17.70;15.93;;;13.10;97.80;;;;;;10503627;28;20206;-85
2023/02/22 16:40:56;;;;;;;18.83;15.27;;;13.00;98.00;;;;;;10430473;28;20251;-84
2023/02/22 16:46:00;;;;;;;18.03;14.93;;;12.90;98.10;;;;;;10449517;28;20279;-85
2023/02/22 16:51:09;;;;;;;18.90;17.00;;;12.90;98.40;;;;;;10454253;28;20208;-84
2023/02/22 16:56:15;;;;;;;19.57;15.70;;;12.80;98.40;;;;;;10455270;28;20231;-84
2023/02/22 17:01:18;;;;;;;20.73;16.33;;;12.70;98.50;;;;;;10480143;28;20221;-83
2023/02/22 17:06:20;;;;;;;20.60;16.37;;;12.70;98.20;;;;;;10479188;28;20212;-84
2023/02/22 17:11:27;;;;;;;22.43;20.10;;;12.70;98.20;;;;;;10471890;28;20262;-85
2023/02/22 17:16:29;;;;;;;17.67;15.60;;;12.70;98.10;;;;;;10460837;28;20214;-83
2023/02/22 17:21:31;;;;;;;15.87;14.30;;;12.70;98.00;;;;;;10476687;28;20718;-84
2023/02/22 17:26:36;;;;;;;19.43;15.50;;;12.70;97.90;;;;;;10473074;28;20222;-84
2023/02/22 17:31:38;;;;;;;18.17;16.27;;;12.70;97.90;;;;;;10458395;28;20252;-85
2023/02/22 17:36:40;;;;;;;20.60;17.27;;;12.60;97.60;;;;;;10452584;28;20704;-84
2023/02/22 17:41:44;;;;;;;18.40;16.33;;;12.60;97.70;;;;;;10435264;28;20674;-83
2023/02/22 17:46:46;;;;;;;19.23;17.23;;;12.50;97.70;;;;;;10450861;28;20298;-82
2023/02/22 17:51:49;;;;;;;18.57;16.73;;;12.40;97.80;;;;;;10447536;28;20662;-83
2023/02/22 17:56:52;;;;;;;20.33;18.20;;;12.30;97.60;;;;;;10456983;28;20213;-84
2023/02/22 18:01:54;;;;;;;70.40;50.23;;;12.20;97.50;;;;;;10435845;28;20193;-84
2023/02/22 18:06:56;;;;;;;20.43;18.20;;;12.10;97.70;;;;;;10432442;28;20411;-82
2023/02/22 18:12:00;;;;;;;24.37;18.60;;;11.90;97.80;;;;;;10427544;28;20206;-83
2023/02/22 18:17:02;;;;;;;23.13;19.70;;;11.90;97.90;;;;;;10447063;28;20243;-84
2023/02/22 18:22:07;;;;;;;30.60;23.70;;;11.80;97.70;;;;;;10445375;28;20228;-84
2023/02/22 18:27:10;;;;;;;19.50;17.60;;;11.80;97.80;;;;;;10458084;28;20267;-83
2023/02/22 18:32:12;;;;;;;20.93;18.80;;;11.70;97.70;;;;;;10452248;28;20280;-83
2023/02/22 18:37:19;;;;;;;29.57;21.63;;;11.70;97.60;;;;;;10480126;28;20520;-83
2023/02/22 18:42:23;;;;;;;19.77;17.67;;;11.60;97.80;;;;;;10447443;28;20267;-82
2023/02/22 18:47:26;;;;;;;29.83;21.80;;;11.50;97.60;;;;;;10450370;28;20228;-83
2023/02/22 18:52:29;;;;;;;28.03;20.30;;;11.50;97.70;;;;;;10468608;28;20672;-83
2023/02/22 18:57:34;;;;;;;20.00;15.93;;;11.40;97.70;;;;;;10466983;28;20217;-82
2023/02/22 19:02:36;;;;;;;17.07;15.40;;;11.40;97.50;;;;;;10452580;28;20206;-81
2023/02/22 19:07:39;;;;;;;20.43;18.37;;;11.40;97.50;;;;;;10471969;28;20279;-82
2023/02/22 19:12:43;;;;;;;17.93;15.83;;;11.40;97.50;;;;;;10445846;28;20201;-84
2023/02/22 19:17:47;;;;;;;19.73;16.37;;;11.30;97.60;;;;;;10451657;28;20194;-83
2023/02/22 19:22:49;;;;;;;21.47;16.63;;;11.30;97.30;;;;;;10462399;28;20625;-82
2023/02/22 19:27:55;;;;;;;17.13;15.33;;;11.20;97.40;;;;;;10417000;28;20680;-83
2023/02/22 19:32:57;;;;;;;14.60;13.10;;;11.10;97.50;;;;;;10381968;28;20236;-83
2023/02/22 19:37:59;;;;;;;14.37;12.93;;;11.10;97.50;;;;;;10415268;28;20201;-83
2023/02/22 19:43:03;;;;;;;16.53;14.60;;;11.20;97.50;;;;;;10416904;28;20252;-83
2023/02/22 19:48:05;;;;;;;17.33;15.40;;;11.20;97.50;;;;;;10384124;28;20310;-83
2023/02/22 19:53:12;;;;;;;18.07;15.30;;;11.20;97.60;;;;;;10417591;28;20301;-83
2023/02/22 19:58:16;;;;;;;15.80;14.30;;;11.10;97.60;;;;;;10399787;28;20209;-84
2023/02/22 20:03:22;;;;;;;16.80;14.83;;;11.10;97.70;;;;;;10385033;28;20761;-83
2023/02/22 20:08:25;;;;;;;15.93;14.37;;;11.10;97.90;;;;;;10401081;28;20302;-84
2023/02/22 20:13:28;;;;;;;14.90;13.50;;;11.10;97.80;;;;;;10430993;28;20222;-83
2023/02/22 20:18:30;;;;;;;16.50;14.80;;;11.10;97.80;;;;;;10413381;28;20581;-83
2023/02/22 20:23:32;;;;;;;14.63;13.00;;;11.10;97.90;;;;;;10403082;22;20858;-81
2023/02/22 20:28:36;;;;;;;15.60;12.97;;;11.10;98.20;;;;;;10485898;28;20223;-79
2023/02/22 20:33:40;;;;;;;15.93;14.50;;;11.20;98.10;;;;;;10495446;28;20213;-79
2023/02/22 20:38:42;;;;;;;16.23;14.60;;;11.10;98.30;;;;;;10444888;28;20285;-79
2023/02/22 20:43:49;;;;;;;17.30;15.40;;;11.10;98.30;;;;;;10463165;28;20222;-79
2023/02/22 20:48:54;;;;;;;19.63;14.53;;;11.20;98.20;;;;;;10459967;28;20693;-79
2023/02/22 20:53:58;;;;;;;32.20;23.87;;;11.20;98.10;;;;;;10461717;28;20233;-78
2023/02/22 20:59:03;;;;;;;17.97;16.07;;;11.00;98.20;;;;;;10428257;28;20543;-78
2023/02/22 21:04:08;;;;;;;19.63;17.60;;;11.00;98.10;;;;;;10438703;28;20253;-78
2023/02/22 21:09:13;;;;;;;15.90;14.30;;;10.90;98.10;;;;;;10455494;28;20214;-80
2023/02/22 21:14:18;;;;;;;23.23;15.10;;;10.90;98.20;;;;;;10433817;28;20772;-80
2023/02/22 21:19:24;;;;;;;23.40;20.90;;;10.90;98.00;;;;;;10463613;28;20189;-78
2023/02/22 21:24:28;;;;;;;24.03;17.30;;;10.80;98.30;;;;;;10437640;28;20347;-79
2023/02/22 21:29:34;;;;;;;18.10;15.10;;;10.70;98.20;;;;;;10454076;28;20693;-78
2023/02/22 21:34:36;;;;;;;16.47;14.73;;;10.70;98.10;;;;;;10437989;28;20213;-77
2023/02/22 21:39:38;;;;;;;15.60;14.10;;;10.70;98.20;;;;;;10455069;28;20197;-79
2023/02/22 21:57:16;;;;;;;14.97;13.47;;;10.50;98.10;;;;;;10469046;28;20588;-79
2023/02/22 22:02:20;;;;;;;17.60;15.77;;;10.40;98.50;;;;;;10472192;28;20194;-78
2023/02/22 22:07:23;;;;;;;16.90;15.10;;;10.30;98.30;;;;;;10455891;28;20359;-79
2023/02/22 22:12:26;;;;;;;16.73;14.37;;;10.30;98.20;;;;;;10477064;28;20201;-79
2023/02/22 22:17:28;;;;;;;18.23;16.60;;;10.20;98.30;;;;;;10472416;28;20210;-79
2023/02/22 22:22:32;;;;;;;16.10;14.60;;;10.20;98.30;;;;;;10431468;28;20250;-79
2023/02/22 22:27:34;;;;;;;18.70;15.70;;;10.10;98.40;;;;;;10453684;28;20228;-80
2023/02/22 22:32:36;;;;;;;17.73;15.93;;;10.00;98.60;;;;;;10477513;28;20233;-79
2023/02/22 22:37:41;;;;;;;17.23;15.63;;;10.00;98.70;;;;;;10459671;28;20260;-80
2023/02/22 22:42:44;;;;;;;23.97;18.40;;;10.00;98.80;;;;;;10469252;28;20194;-79
2023/02/22 22:47:47;;;;;;;18.53;16.70;;;10.00;98.80;;;;;;10466196;28;20244;-79
2023/02/22 22:52:50;;;;;;;20.93;17.30;;;10.00;98.80;;;;;;10466059;28;20267;-79
2023/02/22 22:57:52;;;;;;;21.30;17.90;;;10.00;99.10;;;;;;10462559;28;20302;-79
2023/02/22 23:14:57;;;;;;;20.57;18.47;;;10.20;98.90;;;;;;10467056;28;20220;-78
2023/02/22 23:40:01;;;;;;;19.97;17.87;;;10.10;99.70;;;;;;10372055;28;20665;-82
2023/02/22 23:45:04;;;;;;;23.03;18.10;;;10.30;99.80;;;;;;10444622;28;20221;-80
2023/02/22 23:50:12;;;;;;;21.30;18.97;;;10.40;99.90;;;;;;10468033;28;20220;-81
2023/02/22 23:55:20;;;;;;;20.97;18.00;;;10.50;99.90;;;;;;10467347;28;20688;-81
